createdAt,value
2023-05-19T00:01:17.546Z,37.88
2023-05-19T00:04:01.815Z,38.02
2023-05-19T00:06:31.794Z,38.30
2023-05-19T00:09:05.381Z,38.26
2023-05-19T00:11:36.041Z,38.61
2023-05-19T00:14:05.917Z,38.56
2023-05-19T00:16:33.395Z,38.57
2023-05-19T00:19:02.612Z,38.57
2023-05-19T00:21:30.101Z,38.65
2023-05-19T00:23:57.700Z,38.81
2023-05-19T00:26:26.871Z,38.85
2023-05-19T00:28:54.324Z,38.96
2023-05-19T00:31:21.260Z,38.95
2023-05-19T00:33:48.083Z,39.11
2023-05-19T00:36:14.900Z,39.25
2023-05-19T00:38:41.728Z,39.09
2023-05-19T00:41:08.551Z,39.09
2023-05-19T00:43:35.422Z,39.38
2023-05-19T00:46:02.718Z,39.30
2023-05-19T00:48:29.712Z,39.54
2023-05-19T00:51:02.236Z,39.39
2023-05-19T00:53:30.088Z,39.60
2023-05-19T00:55:57.642Z,39.81
2023-05-19T00:58:29.169Z,39.75
2023-05-19T01:01:04.208Z,39.73
2023-05-19T01:03:35.108Z,39.80
2023-05-19T01:06:07.173Z,39.90
2023-05-19T01:08:38.658Z,40.01
2023-05-19T01:11:07.027Z,40.05
2023-05-19T01:13:35.705Z,40.14
2023-05-19T01:16:16.314Z,40.19
2023-05-19T01:19:15.973Z,40.21
2023-05-19T01:22:07.392Z,40.33
2023-05-19T01:25:11.307Z,40.12
2023-05-19T01:28:05.093Z,40.45
2023-05-19T01:30:41.249Z,40.21
2023-05-19T01:33:14.306Z,40.59
2023-05-19T01:35:43.300Z,40.70
2023-05-19T01:38:13.845Z,40.66
2023-05-19T01:40:41.939Z,40.71
2023-05-19T01:43:13.223Z,40.46
2023-05-19T01:45:40.507Z,40.95
2023-05-19T01:48:10.888Z,40.96
2023-05-19T01:50:38.153Z,40.92
2023-05-19T01:53:05.052Z,41.03
2023-05-19T01:55:32.097Z,41.06
2023-05-19T01:58:22.895Z,41.06
2023-05-19T02:01:13.170Z,41.14
2023-05-19T02:04:13.442Z,41.42
2023-05-19T02:07:17.273Z,41.07
2023-05-19T02:10:05.473Z,41.20
2023-05-19T02:12:36.371Z,41.24
2023-05-19T02:15:38.635Z,41.23
2023-05-19T02:18:06.323Z,41.47
2023-05-19T02:20:33.572Z,41.57
2023-05-19T02:23:00.652Z,41.63
2023-05-19T02:25:27.466Z,41.67
2023-05-19T02:27:54.971Z,41.84
2023-05-19T02:30:21.801Z,41.76
2023-05-19T02:32:48.672Z,41.73
2023-05-19T02:35:15.689Z,41.83
2023-05-19T02:37:42.554Z,42.08
2023-05-19T02:40:09.677Z,41.76
2023-05-19T02:42:36.478Z,42.08
2023-05-19T02:45:03.426Z,42.02
2023-05-19T02:47:30.286Z,42.15
2023-05-19T02:49:57.098Z,42.26
2023-05-19T02:52:23.941Z,42.21
2023-05-19T02:54:51.447Z,42.10
2023-05-19T02:57:18.282Z,41.99
2023-05-19T02:59:45.114Z,42.24
2023-05-19T03:02:12.190Z,42.24
2023-05-19T03:04:42.032Z,42.43
2023-05-19T03:07:10.215Z,42.57
2023-05-19T03:09:42.679Z,42.44
2023-05-19T03:12:09.673Z,42.48
2023-05-19T03:14:39.278Z,42.44
2023-05-19T03:17:10.189Z,42.57
2023-05-19T03:19:37.128Z,42.65
2023-05-19T03:22:04.278Z,42.77
2023-05-19T03:24:31.522Z,42.75
2023-05-19T03:26:58.346Z,42.76
2023-05-19T03:29:25.175Z,43.08
2023-05-19T03:31:52.197Z,42.75
2023-05-19T03:34:19.036Z,43.17
2023-05-19T03:36:45.968Z,43.00
2023-05-19T03:39:12.807Z,43.09
2023-05-19T03:41:39.614Z,43.26
2023-05-19T03:44:06.463Z,43.33
2023-05-19T03:46:33.287Z,43.37
2023-05-19T03:49:00.145Z,43.46
2023-05-19T03:51:28.534Z,43.42
2023-05-19T03:53:55.852Z,43.64
2023-05-19T03:56:24.988Z,43.58
2023-05-19T03:58:51.831Z,43.81
2023-05-19T04:01:18.689Z,43.89
2023-05-19T04:03:45.647Z,43.89
2023-05-19T04:06:12.922Z,43.98
2023-05-19T04:08:40.134Z,44.10
2023-05-19T04:11:06.952Z,43.97
2023-05-19T04:13:34.793Z,44.15
2023-05-19T04:16:01.882Z,44.40
2023-05-19T04:18:29.363Z,44.29
2023-05-19T04:20:56.397Z,44.52
2023-05-19T04:23:23.529Z,44.57
2023-05-19T04:25:50.572Z,44.54
2023-05-19T04:28:18.114Z,44.55
2023-05-19T04:30:46.522Z,44.62
2023-05-19T04:33:13.725Z,44.68
2023-05-19T04:35:40.735Z,44.70
2023-05-19T04:38:07.619Z,44.70
2023-05-19T04:40:34.706Z,44.86
2023-05-19T04:43:02.263Z,44.72
2023-05-19T04:45:33.065Z,44.83
2023-05-19T04:48:00.195Z,44.72
2023-05-19T04:50:28.588Z,44.92
2023-05-19T04:52:55.810Z,45.04
2023-05-19T04:55:23.020Z,45.07
2023-05-19T04:57:49.856Z,45.02
2023-05-19T05:00:17.204Z,45.14
2023-05-19T05:02:46.904Z,45.38
2023-05-19T05:05:13.907Z,45.17
2023-05-19T05:07:40.709Z,45.41
2023-05-19T05:10:08.477Z,45.46
2023-05-19T05:12:35.863Z,45.24
2023-05-19T05:15:03.121Z,45.48
2023-05-19T05:17:30.284Z,45.67
2023-05-19T05:19:57.451Z,45.64
2023-05-19T05:22:27.033Z,45.68
2023-05-19T05:24:54.280Z,45.82
2023-05-19T05:27:21.368Z,45.79
2023-05-19T05:29:48.249Z,45.89
2023-05-19T05:32:16.936Z,45.55
2023-05-19T05:34:43.919Z,45.72
2023-05-19T05:37:13.101Z,45.95
2023-05-19T05:39:40.905Z,45.88
2023-05-19T05:42:09.132Z,45.96
2023-05-19T05:44:35.968Z,45.91
2023-05-19T05:47:03.952Z,46.05
2023-05-19T05:49:31.170Z,45.96
2023-05-19T05:52:05.648Z,46.15
2023-05-19T05:54:33.879Z,46.04
2023-05-19T05:57:02.475Z,45.84
2023-05-19T05:59:29.352Z,45.73
2023-05-19T06:01:56.320Z,45.79
2023-05-19T06:04:23.181Z,46.27
2023-05-19T06:06:50.069Z,45.95
2023-05-19T06:09:17.009Z,45.67
2023-05-19T06:11:43.917Z,45.74
2023-05-19T06:14:10.796Z,45.93
2023-05-19T06:16:37.855Z,45.95
2023-05-19T06:19:04.902Z,46.04
2023-05-19T06:21:31.889Z,45.88
2023-05-19T06:23:58.739Z,45.68
2023-05-19T06:26:26.403Z,45.51
2023-05-19T06:28:53.282Z,45.47
2023-05-19T06:31:20.157Z,45.57
2023-05-19T06:33:47.045Z,45.36
2023-05-19T06:36:13.970Z,45.30
2023-05-19T06:38:40.929Z,45.32
2023-05-19T06:41:07.963Z,45.28
2023-05-19T06:43:34.759Z,45.65
2023-05-19T06:46:01.619Z,45.67
2023-05-19T06:48:28.631Z,45.32
2023-05-19T06:50:55.990Z,45.53
2023-05-19T06:53:22.834Z,45.44
2023-05-19T06:55:59.212Z,45.62
2023-05-19T06:58:27.043Z,45.92
2023-05-19T07:00:53.915Z,45.96
2023-05-19T07:03:20.882Z,45.88
2023-05-19T07:05:47.911Z,45.58
2023-05-19T07:08:14.750Z,45.54
2023-05-19T07:10:41.566Z,45.47
2023-05-19T07:13:08.418Z,45.33
2023-05-19T07:15:35.424Z,45.37
2023-05-19T07:18:02.292Z,45.13
2023-05-19T07:20:29.119Z,44.90
2023-05-19T07:22:55.984Z,45.19
2023-05-19T07:25:22.869Z,45.55
2023-05-19T07:27:49.751Z,44.89
2023-05-19T07:30:16.597Z,45.25
2023-05-19T07:32:43.438Z,44.73
2023-05-19T07:35:10.530Z,44.86
2023-05-19T07:37:37.440Z,44.54
2023-05-19T07:40:06.710Z,44.25
2023-05-19T07:42:34.083Z,44.31
2023-05-19T07:45:01.228Z,44.27
2023-05-19T07:47:28.082Z,44.30
2023-05-19T07:49:54.910Z,44.88
2023-05-19T07:52:21.757Z,44.59
2023-05-19T07:54:48.569Z,44.55
2023-05-19T07:57:15.434Z,44.22
2023-05-19T07:59:42.367Z,43.90
2023-05-19T08:02:09.270Z,43.55
2023-05-19T08:04:36.421Z,43.71
2023-05-19T08:07:03.778Z,43.70
2023-05-19T08:09:33.281Z,44.01
2023-05-19T08:12:01.669Z,44.03
2023-05-19T08:14:28.619Z,43.40
2023-05-19T08:16:55.494Z,43.46
2023-05-19T08:19:22.672Z,43.35
2023-05-19T08:21:49.722Z,43.38
2023-05-19T08:24:16.619Z,43.20
2023-05-19T08:26:44.396Z,42.39
2023-05-19T08:29:11.269Z,42.67
2023-05-19T08:31:38.174Z,42.76
2023-05-19T08:34:05.120Z,42.96
2023-05-19T08:36:32.174Z,42.91
2023-05-19T08:38:58.985Z,42.53
2023-05-19T08:41:26.395Z,42.41
2023-05-19T08:43:53.301Z,42.19
2023-05-19T08:46:22.150Z,42.30
2023-05-19T08:48:49.624Z,41.88
2023-05-19T08:51:36.397Z,41.65
2023-05-19T08:54:15.773Z,41.67
2023-05-19T08:56:46.625Z,41.59
2023-05-19T08:59:18.287Z,41.36
2023-05-19T09:01:46.304Z,41.35
2023-05-19T09:04:13.631Z,41.37
2023-05-19T09:06:45.157Z,41.36
2023-05-19T09:09:12.256Z,41.42
2023-05-19T09:11:39.073Z,40.85
2023-05-19T09:14:06.319Z,40.71
2023-05-19T09:16:33.899Z,40.47
2023-05-19T09:19:01.180Z,40.40
2023-05-19T09:21:31.945Z,40.10
2023-05-19T09:24:08.374Z,40.05
2023-05-19T09:26:40.290Z,40.33
2023-05-19T09:29:15.973Z,40.41
2023-05-19T09:31:51.489Z,40.60
2023-05-19T09:34:19.237Z,40.38
2023-05-19T09:36:49.601Z,40.53
2023-05-19T09:39:17.957Z,40.80
2023-05-19T09:41:45.234Z,41.14
2023-05-19T09:44:21.308Z,40.59
2023-05-19T09:46:53.374Z,40.01
2023-05-19T09:49:21.693Z,39.60
2023-05-19T09:52:07.745Z,39.60
2023-05-19T09:54:34.885Z,39.11
2023-05-19T09:57:05.530Z,39.01
2023-05-19T09:59:34.185Z,38.97
2023-05-19T10:02:02.404Z,38.59
2023-05-19T10:04:30.887Z,38.39
2023-05-19T10:07:05.367Z,38.26
2023-05-19T10:09:32.309Z,38.92
2023-05-19T10:11:59.475Z,38.64
2023-05-19T10:14:29.149Z,38.18
2023-05-19T10:16:59.092Z,38.08
2023-05-19T10:19:29.600Z,37.51
2023-05-19T10:21:56.904Z,37.75
2023-05-19T10:24:23.835Z,37.87
2023-05-19T10:27:07.816Z,37.07
2023-05-19T10:29:40.046Z,36.50
2023-05-19T10:32:16.794Z,36.75
2023-05-19T10:35:32.529Z,36.89
2023-05-19T10:38:14.336Z,36.40
2023-05-19T10:41:01.213Z,36.04
2023-05-19T10:43:52.141Z,35.53
2023-05-19T10:46:23.646Z,35.57
2023-05-19T10:48:51.479Z,35.30
2023-05-19T10:51:18.409Z,35.00
2023-05-19T10:53:50.099Z,35.11
2023-05-19T10:56:35.965Z,35.06
2023-05-19T10:59:03.722Z,34.74
2023-05-19T11:01:33.321Z,34.84
2023-05-19T11:04:12.069Z,34.46
2023-05-19T11:06:40.327Z,34.35
2023-05-19T11:09:22.472Z,34.07
2023-05-19T11:11:55.461Z,34.38
2023-05-19T11:14:26.671Z,34.06
2023-05-19T11:16:58.231Z,33.65
2023-05-19T11:19:30.737Z,33.82
2023-05-19T11:22:10.015Z,33.66
2023-05-19T11:24:44.458Z,33.23
2023-05-19T11:27:33.232Z,32.99
2023-05-19T11:30:09.539Z,32.53
2023-05-19T11:32:39.272Z,32.16
2023-05-19T11:35:08.133Z,31.88
2023-05-19T11:37:35.802Z,31.34
2023-05-19T11:40:07.179Z,31.13
2023-05-19T11:42:35.472Z,31.73
2023-05-19T11:45:03.367Z,31.31
2023-05-19T11:47:42.060Z,31.14
2023-05-19T11:50:14.319Z,31.06
2023-05-19T11:52:46.218Z,30.96
2023-05-19T11:55:23.800Z,30.85
2023-05-19T11:58:05.191Z,30.96
2023-05-19T12:00:39.441Z,30.28
2023-05-19T12:03:07.829Z,30.09
2023-05-19T12:05:43.239Z,30.12
2023-05-19T12:08:11.790Z,30.39
2023-05-19T12:10:40.172Z,30.46
2023-05-19T12:13:10.645Z,30.46
2023-05-19T12:15:39.116Z,30.80
2023-05-19T12:18:06.558Z,30.34
2023-05-19T12:20:35.518Z,29.88
2023-05-19T12:23:03.196Z,29.53
2023-05-19T12:25:31.361Z,29.37
2023-05-19T12:28:03.079Z,29.22
2023-05-19T12:30:32.372Z,29.24
2023-05-19T12:33:00.058Z,28.96
2023-05-19T12:35:34.434Z,28.91
2023-05-19T12:38:05.171Z,30.20
2023-05-19T12:40:34.239Z,29.63
2023-05-19T12:43:01.403Z,29.32
2023-05-19T12:45:28.760Z,29.60
2023-05-19T12:47:56.198Z,29.40
2023-05-19T12:50:31.149Z,29.78
2023-05-19T12:52:59.947Z,29.84
2023-05-19T12:55:27.057Z,29.46
2023-05-19T12:57:56.854Z,29.64
2023-05-19T13:00:32.462Z,29.97
2023-05-19T13:03:07.763Z,30.26
2023-05-19T13:05:39.715Z,29.96
2023-05-19T13:08:09.134Z,29.85
2023-05-19T13:10:38.297Z,29.21
2023-05-19T13:13:07.284Z,28.86
2023-05-19T13:15:37.863Z,28.97
2023-05-19T13:18:08.715Z,28.68
2023-05-19T13:20:37.633Z,28.74
2023-05-19T13:23:05.722Z,28.86
2023-05-19T13:25:36.071Z,28.64
2023-05-19T13:28:06.505Z,28.66
2023-05-19T13:30:35.660Z,28.45
2023-05-19T13:33:03.062Z,29.02
2023-05-19T13:35:31.284Z,28.76
2023-05-19T13:37:58.353Z,28.64
2023-05-19T13:40:28.026Z,28.02
2023-05-19T13:42:55.041Z,27.85
2023-05-19T13:45:21.851Z,27.79
2023-05-19T13:47:49.213Z,27.93
2023-05-19T13:50:16.083Z,27.87
2023-05-19T13:52:43.067Z,27.63
2023-05-19T13:55:10.015Z,27.88
2023-05-19T13:57:36.978Z,27.81
2023-05-19T14:00:05.411Z,27.44
2023-05-19T14:02:33.779Z,27.46
2023-05-19T14:05:00.708Z,27.41
2023-05-19T14:07:28.306Z,27.29
2023-05-19T14:09:55.271Z,27.14
2023-05-19T14:12:25.589Z,27.73
2023-05-19T14:17:28.406Z,27.52
2023-05-19T14:19:55.834Z,27.33
2023-05-19T14:22:22.698Z,27.46
2023-05-19T14:24:49.660Z,27.21
2023-05-19T14:27:16.710Z,27.08
2023-05-19T14:29:43.875Z,27.53
2023-05-19T14:32:10.871Z,27.57
2023-05-19T14:34:37.750Z,27.56
2023-05-19T14:37:04.706Z,27.78
2023-05-19T14:39:31.568Z,27.80
2023-05-19T14:42:01.356Z,27.58
2023-05-19T14:44:35.040Z,27.72
2023-05-19T14:47:02.592Z,27.67
2023-05-19T14:49:30.110Z,27.71
2023-05-19T14:51:57.016Z,27.58
2023-05-19T14:54:23.877Z,27.59
2023-05-19T14:56:50.716Z,27.52
2023-05-19T14:59:17.633Z,27.53
2023-05-19T15:01:44.569Z,27.59
2023-05-19T15:04:11.535Z,27.15
2023-05-19T15:06:38.397Z,27.08
2023-05-19T15:09:05.428Z,27.39
2023-05-19T15:11:32.260Z,26.77
2023-05-19T15:13:59.074Z,26.44
2023-05-19T15:16:26.085Z,26.83
2023-05-19T15:18:53.013Z,26.99
2023-05-19T15:21:19.898Z,26.95
2023-05-19T15:23:47.591Z,27.01
2023-05-19T15:26:14.458Z,27.49
2023-05-19T15:28:41.393Z,27.58
2023-05-19T15:31:08.383Z,27.68
2023-05-19T15:33:35.435Z,27.90
2023-05-19T15:36:02.241Z,27.65
2023-05-19T15:38:30.103Z,27.85
2023-05-19T15:40:57.628Z,27.98
2023-05-19T15:43:25.196Z,27.90
2023-05-19T15:45:54.899Z,27.91
2023-05-19T15:48:21.758Z,27.64
2023-05-19T15:50:48.768Z,27.69
2023-05-19T15:53:15.668Z,27.40
2023-05-19T15:55:42.481Z,27.58
2023-05-19T15:58:09.315Z,27.27
2023-05-19T16:00:36.255Z,27.39
2023-05-19T16:03:03.208Z,27.45
2023-05-19T16:05:30.148Z,27.23
2023-05-19T16:07:57.017Z,27.26
2023-05-19T16:10:23.887Z,27.71
2023-05-19T16:12:50.695Z,27.39
2023-05-19T16:15:17.624Z,27.62
2023-05-19T16:17:44.598Z,27.38
2023-05-19T16:20:11.729Z,27.74
2023-05-19T16:22:38.651Z,27.69
2023-05-19T16:25:06.369Z,27.59
2023-05-19T16:27:33.212Z,27.64
2023-05-19T16:30:01.142Z,27.69
2023-05-19T16:32:28.095Z,27.86
2023-05-19T16:34:54.947Z,27.75
2023-05-19T16:37:21.888Z,27.85
2023-05-19T16:39:48.823Z,27.93
2023-05-19T16:42:15.726Z,27.93
2023-05-19T16:44:45.375Z,28.04
2023-05-19T16:47:12.244Z,28.13
2023-05-19T16:49:40.767Z,28.14
2023-05-19T16:52:07.989Z,27.95
2023-05-19T16:54:35.028Z,28.02
2023-05-19T16:57:02.239Z,28.07
2023-05-19T16:59:29.083Z,28.28
2023-05-19T17:01:58.934Z,28.08
2023-05-19T17:04:27.060Z,28.50
2023-05-19T17:06:55.479Z,28.29
2023-05-19T17:09:25.089Z,28.01
2023-05-19T17:11:53.759Z,28.10
2023-05-19T17:14:23.454Z,27.94
2023-05-19T17:16:52.304Z,28.04
2023-05-19T17:19:19.282Z,27.92
2023-05-19T17:21:46.301Z,28.14
2023-05-19T17:24:13.185Z,27.98
2023-05-19T17:26:40.227Z,27.81
2023-05-19T17:29:08.329Z,28.31
2023-05-19T17:31:35.214Z,28.39
2023-05-19T17:34:02.077Z,28.56
2023-05-19T17:36:28.988Z,28.52
2023-05-19T17:38:55.853Z,28.56
2023-05-19T17:41:22.757Z,28.16
2023-05-19T17:43:49.653Z,28.51
2023-05-19T17:46:16.552Z,28.60
2023-05-19T17:48:43.854Z,28.29
2023-05-19T17:51:11.359Z,28.48
2023-05-19T17:53:38.472Z,28.36
2023-05-19T17:56:08.806Z,28.45
2023-05-19T17:58:36.330Z,28.46
2023-05-19T18:01:03.263Z,28.55
2023-05-19T18:03:30.748Z,28.52
2023-05-19T18:05:58.774Z,28.32
2023-05-19T18:08:26.131Z,28.42
2023-05-19T18:10:54.036Z,28.49
2023-05-19T18:13:21.886Z,28.72
2023-05-19T18:15:49.246Z,28.78
2023-05-19T18:18:16.262Z,28.69
2023-05-19T18:20:45.480Z,28.94
2023-05-19T18:23:12.579Z,28.53
2023-05-19T18:25:39.560Z,28.63
2023-05-19T18:28:06.436Z,28.99
2023-05-19T18:30:33.532Z,29.06
2023-05-19T18:33:03.351Z,29.07
2023-05-19T18:35:30.271Z,28.87
2023-05-19T18:37:57.318Z,28.96
2023-05-19T18:40:24.551Z,29.21
2023-05-19T18:42:51.445Z,29.11
2023-05-19T18:45:18.409Z,29.24
2023-05-19T18:47:45.796Z,29.00
2023-05-19T18:50:12.977Z,29.08
2023-05-19T18:52:40.867Z,29.32
2023-05-19T18:55:08.237Z,29.33
2023-05-19T18:57:35.072Z,29.43
2023-05-19T19:00:02.026Z,29.36
2023-05-19T19:02:28.884Z,29.50
2023-05-19T19:04:55.802Z,29.36
2023-05-19T19:07:25.059Z,29.43
2023-05-19T19:09:51.864Z,29.63
2023-05-19T19:12:20.386Z,29.58
2023-05-19T19:14:47.549Z,29.78
2023-05-19T19:17:14.570Z,29.84
2023-05-19T19:19:41.604Z,30.04
2023-05-19T19:22:08.604Z,30.13
2023-05-19T19:24:35.811Z,29.83
2023-05-19T19:27:02.692Z,29.94
2023-05-19T19:29:29.819Z,30.03
2023-05-19T19:31:56.664Z,30.19
2023-05-19T19:34:23.541Z,30.46
2023-05-19T19:36:50.581Z,30.29
2023-05-19T19:39:17.443Z,30.32
2023-05-19T19:41:44.369Z,30.53
2023-05-19T19:44:11.251Z,30.54
2023-05-19T19:46:38.159Z,30.62
2023-05-19T19:49:05.186Z,30.42
2023-05-19T19:51:32.046Z,30.54
2023-05-19T19:53:59.276Z,30.65
2023-05-19T19:56:27.404Z,30.79
2023-05-19T19:58:56.776Z,30.93
2023-05-19T20:01:27.436Z,31.07
2023-05-19T20:03:55.520Z,30.97
2023-05-19T20:06:22.623Z,31.03
2023-05-19T20:08:50.133Z,31.40
2023-05-19T20:11:17.323Z,31.36
2023-05-19T20:13:44.142Z,31.27
2023-05-19T20:16:11.158Z,31.36
2023-05-19T20:18:38.592Z,31.35
2023-05-19T20:21:05.554Z,31.42
2023-05-19T20:23:32.472Z,31.37
2023-05-19T20:26:11.971Z,31.54
2023-05-19T20:28:39.810Z,31.70
2023-05-19T20:31:06.808Z,31.69
2023-05-19T20:33:34.802Z,32.02
2023-05-19T20:36:01.613Z,31.88
2023-05-19T20:38:28.488Z,32.07
2023-05-19T20:40:55.571Z,32.03
2023-05-19T20:43:22.362Z,32.26
2023-05-19T20:45:49.298Z,32.35
2023-05-19T20:48:16.229Z,32.37
2023-05-19T20:50:43.164Z,32.21
2023-05-19T20:53:10.043Z,32.37
2023-05-19T20:55:38.593Z,32.81
2023-05-19T20:58:05.731Z,32.61
2023-05-19T21:00:33.073Z,32.74
2023-05-19T21:03:00.721Z,32.48
2023-05-19T21:05:27.624Z,32.81
2023-05-19T21:07:54.467Z,32.91
2023-05-19T21:10:21.402Z,32.97
2023-05-19T21:12:48.283Z,32.95
2023-05-19T21:15:15.707Z,33.32
2023-05-19T21:17:42.692Z,33.14
2023-05-19T21:20:10.249Z,33.18
2023-05-19T21:22:37.094Z,33.34
2023-05-19T21:25:04.208Z,33.30
2023-05-19T21:27:32.814Z,33.56
2023-05-19T21:29:59.974Z,33.49
2023-05-19T21:32:27.709Z,33.55
2023-05-19T21:34:54.569Z,33.47
2023-05-19T21:37:21.732Z,33.47
2023-05-19T21:39:48.920Z,33.70
2023-05-19T21:42:15.837Z,34.02
2023-05-19T21:44:42.662Z,33.69
2023-05-19T21:47:09.473Z,33.82
2023-05-19T21:49:38.177Z,34.04
2023-05-19T21:52:06.386Z,34.03
2023-05-19T21:54:36.493Z,34.11
2023-05-19T21:57:03.544Z,34.28
2023-05-19T21:59:30.493Z,34.18
2023-05-19T22:01:57.359Z,34.44
2023-05-19T22:04:24.256Z,34.20
2023-05-19T22:06:51.114Z,34.38
2023-05-19T22:09:18.012Z,34.59
2023-05-19T22:11:44.904Z,34.76
2023-05-19T22:14:11.899Z,34.66
2023-05-19T22:16:38.817Z,34.80
2023-05-19T22:19:05.687Z,34.81
2023-05-19T22:21:35.138Z,35.06
2023-05-19T22:24:02.385Z,35.03
2023-05-19T22:26:29.229Z,35.15
2023-05-19T22:28:56.501Z,35.02
2023-05-19T22:31:23.378Z,35.24
2023-05-19T22:33:50.237Z,35.23
2023-05-19T22:36:17.108Z,35.38
2023-05-19T22:38:43.989Z,35.31
2023-05-19T22:41:11.033Z,35.26
2023-05-19T22:43:38.037Z,35.62
2023-05-19T22:46:05.172Z,35.57
2023-05-19T22:48:32.093Z,35.92
2023-05-19T22:50:58.996Z,35.58
2023-05-19T22:53:25.836Z,35.73
2023-05-19T22:55:52.699Z,35.77
2023-05-19T22:58:19.506Z,35.93
2023-05-19T23:00:46.356Z,36.03
2023-05-19T23:03:13.297Z,35.99
2023-05-19T23:05:40.561Z,36.16
2023-05-19T23:08:07.378Z,36.13
2023-05-19T23:10:34.194Z,36.14
2023-05-19T23:13:01.115Z,36.38
2023-05-19T23:15:27.941Z,36.49
2023-05-19T23:17:54.766Z,36.62
2023-05-19T23:20:21.633Z,36.41
2023-05-19T23:22:48.525Z,36.40
2023-05-19T23:25:15.477Z,36.59
2023-05-19T23:27:42.315Z,36.53
2023-05-19T23:30:09.536Z,36.64
2023-05-19T23:32:38.716Z,36.75
2023-05-19T23:35:16.890Z,36.83
2023-05-19T23:37:43.901Z,36.85
2023-05-19T23:40:11.456Z,36.84
2023-05-19T23:42:38.470Z,36.85
2023-05-19T23:45:06.160Z,36.96
2023-05-19T23:47:33.046Z,36.85
2023-05-19T23:49:59.904Z,37.21
2023-05-19T23:52:26.946Z,37.07
2023-05-19T23:54:53.757Z,37.17
2023-05-19T23:57:20.550Z,37.14
2023-05-19T23:59:47.483Z,37.25
